»·PEaware :: N5914R KBFL-KMHV

N5914R :: KBFL-KMHV

FLIGHT INFORMATION

Flight Status: Arrived
Operator: Privately registered:
United States
More flights under this callsign
Pilot: Scott G. (88)
Aircraft: Unknown
(P32R)
More flights by this aircraft type
Origin: KBFL Meadows
United States
Destination: KMHV Mojave
United States
More flights between these airports :: More routes between these airports
Route: +
File this flight plan on PilotEdge
Remarks: CAT 6 attempt
Altitude:
(Current/Filed)
7,500ft
Speed:
(Current/Filed)
160kts
Departed: 29-Dec-16 11:51 AM
Arrived: 29-Dec-16 12:22 PM
Distance/Time
Traveled:
50nm/0:31
Distance/Time
To Go:
Arrived

Flight Plot

Page will automatically refresh every two minutes.


Map Options




Map Legend


Flown Route
Filed Route
Departure Airport
Arrival Airport
Navaid (VOR, NDB)
Fix

Horizontal Profiles

Position Reports

Time Latitude Longitude Heading Altitude Ground
Speed
29-Dec-16 11:26 35.435686 -119.053073 176 509ft 0kts
29-Dec-16 11:27 35.435686 -119.053073 176 509ft 0kts
29-Dec-16 11:28 35.435686 -119.053073 176 509ft 0kts
29-Dec-16 11:29 35.435686 -119.053073 176 509ft 0kts
29-Dec-16 11:30 35.435686 -119.053073 176 509ft 0kts
29-Dec-16 11:31 35.435686 -119.053073 176 509ft 0kts
29-Dec-16 11:32 35.435219 -119.053850 234 509ft 10kts
29-Dec-16 11:33 35.434945 -119.054304 231 509ft 0kts
29-Dec-16 11:34 35.434945 -119.054304 231 509ft 0kts
29-Dec-16 11:35 35.434945 -119.054304 231 509ft 0kts
29-Dec-16 11:36 35.434945 -119.054304 231 509ft 0kts
29-Dec-16 11:37 35.434945 -119.054304 231 509ft 0kts
29-Dec-16 11:38 35.434945 -119.054304 231 509ft 0kts
29-Dec-16 11:39 35.434945 -119.054304 231 509ft 0kts
29-Dec-16 11:40 35.434945 -119.054304 231 509ft 0kts
29-Dec-16 11:41 35.434916 -119.054348 231 509ft 2kts
29-Dec-16 11:42 35.434796 -119.054525 227 509ft 0kts
29-Dec-16 11:43 35.434796 -119.054526 228 509ft 0kts
29-Dec-16 11:44 35.433670 -119.053738 132 509ft 19kts
29-Dec-16 11:45 35.428276 -119.047232 133 509ft 27kts
29-Dec-16 11:46 35.425696 -119.043901 113 509ft 11kts
29-Dec-16 11:47 35.424160 -119.043343 179 509ft 0kts
29-Dec-16 11:48 35.424160 -119.043343 179 509ft 0kts
29-Dec-16 11:49 35.424081 -119.043847 267 509ft 0kts
29-Dec-16 11:50 35.424484 -119.044867 313 509ft 23kts
29-Dec-16 11:51 35.440104 -119.064070 317 1279ft 99kts
29-Dec-16 11:52 35.461865 -119.051730 90 2600ft 119kts
29-Dec-16 11:53 35.448487 -119.012656 115 3655ft 134kts
29-Dec-16 11:54 35.434209 -118.969285 115 4575ft 139kts
29-Dec-16 11:55 35.417669 -118.929170 124 5429ft 141kts
29-Dec-16 11:56 35.395777 -118.888003 124 6330ft 148kts
29-Dec-16 11:57 35.374037 -118.851652 125 7115ft 151kts
29-Dec-16 11:58 35.348654 -118.810882 125 7445ft 172kts
29-Dec-16 11:59 35.319129 -118.763256 125 7442ft 177kts
29-Dec-16 12:00 35.293626 -118.712145 115 7443ft 176kts
29-Dec-16 12:01 35.284524 -118.691198 114 7443ft 176kts
29-Dec-16 12:02 35.268011 -118.652313 117 7489ft 177kts
29-Dec-16 12:03 35.247105 -118.602277 117 7490ft 178kts
29-Dec-16 12:04 35.224865 -118.548893 116 7490ft 178kts
29-Dec-16 12:05 35.202483 -118.495159 116 7490ft 178kts
29-Dec-16 12:06 35.179984 -118.441131 117 7490ft 178kts
29-Dec-16 12:07 35.160884 -118.395281 116 7491ft 178kts
29-Dec-16 12:08 35.141868 -118.349653 116 7490ft 179kts
29-Dec-16 12:09 35.130371 -118.322054 116 7488ft 176kts
29-Dec-16 12:10 35.114884 -118.284900 116 7380ft 164kts
29-Dec-16 12:11 35.097226 -118.242214 121 6621ft 159kts
29-Dec-16 12:12 35.078642 -118.198014 120 5722ft 135kts
29-Dec-16 12:13 35.062295 -118.158821 118 4996ft 119kts
29-Dec-16 12:14 35.049931 -118.125106 115 4987ft 102kts
29-Dec-16 12:15 35.050236 -118.094540 18 4102ft 112kts
29-Dec-16 12:16 35.073588 -118.113337 316 3784ft 93kts
29-Dec-16 12:17 35.086371 -118.146076 281 3792ft 119kts
29-Dec-16 12:18 35.070711 -118.152945 91 3825ft 106kts
29-Dec-16 12:19 35.075733 -118.117067 76 3888ft 108kts
29-Dec-16 12:20 35.068815 -118.094894 209 3687ft 105kts
29-Dec-16 12:21 35.059058 -118.125146 279 3111ft 98kts
29-Dec-16 12:22 35.059167 -118.150073 260 2794ft 12kts
29-Dec-16 12:23 35.058459 -118.149835 132 2794ft 0kts
29-Dec-16 12:24 35.057594 -118.153373 269 2794ft 25kts
29-Dec-16 12:25 35.056954 -118.157103 76 2794ft 0kts

Navigation Log

Ident Type
Flight plan parsing failed, navigation log unavailable